Time;durP1;ratioP1;P1;durP2;ratioP2;P2;SDS_P1;SDS_P2;PMS_P1;PMS_P2;Temp;Humidity;BMP_temperature;BMP_pressure;BME280_temperature;BME280_humidity;BME280_pressure;Samples;Min_cycle;Max_cycle;Signal;HPM_P1;HPM_P2
2021/11/10 00:00:44;;;;;;;12.33;10.30;;;3.40;99.90;;;;;;5019848;28;20205;-80
2021/11/10 00:03:10;;;;;;;18.13;10.97;;;3.40;99.90;;;;;;5019502;28;20189;-81
2021/11/10 00:05:37;;;;;;;13.73;10.73;;;3.40;99.90;;;;;;5019071;28;20315;-81
2021/11/10 00:08:04;;;;;;;14.13;10.53;;;3.40;99.90;;;;;;5002049;28;20202;-81
2021/11/10 00:10:30;;;;;;;13.60;10.80;;;3.40;99.90;;;;;;5019664;28;20204;-80
2021/11/10 00:12:57;;;;;;;12.43;10.47;;;3.40;99.90;;;;;;5001982;28;20205;-82
2021/11/10 00:15:23;;;;;;;11.17;9.23;;;3.40;99.90;;;;;;5019248;28;20174;-80
2021/11/10 00:17:49;;;;;;;12.77;9.37;;;3.40;99.90;;;;;;5001442;28;20225;-81
2021/11/10 00:20:15;;;;;;;13.60;10.83;;;3.40;99.90;;;;;;5001545;28;20180;-82
2021/11/10 00:22:41;;;;;;;13.60;10.60;;;3.50;99.90;;;;;;5019429;28;20576;-81
2021/11/10 00:25:08;;;;;;;15.33;10.07;;;3.20;99.90;;;;;;5019274;28;20177;-80
2021/11/10 00:27:33;;;;;;;14.37;10.27;;;3.10;99.90;;;;;;5019290;28;20177;-81
2021/11/10 00:29:59;;;;;;;15.40;10.33;;;3.20;99.90;;;;;;5018743;28;20266;-80
2021/11/10 00:32:25;;;;;;;12.50;9.27;;;3.20;99.90;;;;;;5001015;28;20256;-82
2021/11/10 00:34:51;;;;;;;12.10;9.10;;;3.10;99.90;;;;;;5018772;28;20603;-80
2021/11/10 00:37:16;;;;;;;13.10;9.17;;;2.70;99.90;;;;;;5001286;28;20176;-80
2021/11/10 00:39:42;;;;;;;15.07;10.30;;;2.70;99.90;;;;;;5018881;28;20247;-80
2021/11/10 00:42:07;;;;;;;13.50;9.37;;;2.50;99.90;;;;;;5018848;28;20177;-80
2021/11/10 00:44:33;;;;;;;11.97;9.47;;;2.60;99.90;;;;;;5018915;28;20187;-80
2021/11/10 00:46:59;;;;;;;12.23;9.70;;;2.70;99.90;;;;;;5001259;28;20655;-81
2021/11/10 00:49:24;;;;;;;14.60;11.00;;;2.60;99.90;;;;;;5018481;28;20195;-80
2021/11/10 00:51:50;;;;;;;13.43;10.33;;;2.60;99.90;;;;;;5012531;28;20176;-80
2021/11/10 00:54:16;;;;;;;10.40;9.20;;;2.60;99.90;;;;;;5002502;28;20201;-81
2021/11/10 00:56:42;;;;;;;10.20;9.20;;;2.60;99.90;;;;;;5005732;28;20200;-79
2021/11/10 00:59:07;;;;;;;12.30;10.67;;;2.50;99.90;;;;;;5017199;28;20259;-80
2021/11/10 01:01:33;;;;;;;14.53;9.70;;;2.30;99.90;;;;;;5005093;28;20180;-80
2021/11/10 01:04:00;;;;;;;13.17;10.77;;;2.10;99.90;;;;;;5006230;28;20206;-81
2021/11/10 01:06:26;;;;;;;13.23;10.50;;;2.00;99.90;;;;;;5020039;28;20645;-80
2021/11/10 01:08:53;;;;;;;14.27;10.20;;;2.00;99.90;;;;;;5017682;28;20199;-81
2021/11/10 01:11:19;;;;;;;12.27;10.13;;;2.00;99.90;;;;;;5000551;28;20675;-81
2021/11/10 01:13:44;;;;;;;15.43;10.07;;;2.10;99.90;;;;;;5000635;28;20199;-81
2021/11/10 01:16:10;;;;;;;12.23;9.73;;;2.00;99.90;;;;;;5018030;28;20186;-81
2021/11/10 01:18:36;;;;;;;16.90;10.17;;;1.80;99.90;;;;;;5000059;28;20191;-80
2021/11/10 01:21:02;;;;;;;14.97;10.20;;;1.80;99.90;;;;;;4999888;28;20177;-81
2021/11/10 01:23:28;;;;;;;13.57;10.27;;;1.90;99.90;;;;;;5017940;28;20267;-81
2021/11/10 01:25:54;;;;;;;16.67;10.93;;;1.90;99.90;;;;;;5000307;28;20180;-80
2021/11/10 01:28:20;;;;;;;12.47;10.23;;;1.90;99.90;;;;;;4999375;28;20202;-80
2021/11/10 01:30:46;;;;;;;15.53;11.13;;;1.90;99.90;;;;;;5018210;28;20191;-80
2021/11/10 01:33:12;;;;;;;14.37;10.57;;;1.80;99.90;;;;;;5017936;28;20187;-80
2021/11/10 01:35:38;;;;;;;14.30;11.17;;;1.80;99.90;;;;;;5017863;28;20172;-81
2021/11/10 01:38:03;;;;;;;12.90;10.50;;;1.70;99.90;;;;;;5017847;28;20604;-80
2021/11/10 01:40:29;;;;;;;13.90;10.67;;;1.60;99.90;;;;;;5016968;28;20198;-80
2021/11/10 01:42:56;;;;;;;15.47;10.70;;;1.50;99.90;;;;;;5017310;28;20771;-81
2021/11/10 01:45:22;;;;;;;14.47;10.50;;;1.60;99.90;;;;;;5017742;28;20205;-80
2021/11/10 01:47:48;;;;;;;13.33;10.27;;;1.70;99.90;;;;;;5018157;28;20237;-80
2021/11/10 01:50:16;;;;;;;14.63;9.93;;;1.70;99.90;;;;;;5018263;28;20171;-81
2021/11/10 01:52:43;;;;;;;18.77;11.87;;;1.80;99.90;;;;;;4999799;28;20175;-80
2021/11/10 01:55:09;;;;;;;16.50;11.13;;;1.90;99.90;;;;;;4999956;28;20179;-80
2021/11/10 01:57:36;;;;;;;13.70;10.30;;;2.10;99.90;;;;;;5018083;28;20239;-80
2021/11/10 02:00:12;;;;;;;14.83;10.90;;;2.10;99.90;;;;;;5017881;28;20275;-80
2021/11/10 02:02:41;;;;;;;14.33;10.97;;;2.20;99.90;;;;;;5016907;28;20170;-80
2021/11/10 02:05:09;;;;;;;18.10;11.77;;;2.30;99.90;;;;;;4999793;28;20179;-80
2021/11/10 02:07:36;;;;;;;16.00;11.30;;;2.30;99.90;;;;;;5017422;28;20204;-81
2021/11/10 02:10:02;;;;;;;20.00;11.73;;;2.40;99.90;;;;;;5000111;28;20624;-80
2021/11/10 02:12:29;;;;;;;15.73;11.20;;;2.40;99.90;;;;;;5016489;28;20182;-80
2021/11/10 02:14:55;;;;;;;17.40;12.30;;;2.60;99.90;;;;;;4999415;28;20329;-81
2021/11/10 02:17:21;;;;;;;14.57;10.67;;;2.50;99.90;;;;;;4999576;28;20555;-80
2021/11/10 02:19:48;;;;;;;16.57;10.80;;;2.50;99.90;;;;;;4999061;28;20225;-81
2021/11/10 02:22:16;;;;;;;16.37;11.33;;;2.50;99.90;;;;;;4999498;28;20189;-80
2021/11/10 02:24:43;;;;;;;14.77;10.87;;;2.50;99.90;;;;;;5005456;28;20177;-80
2021/11/10 02:27:21;;;;;;;16.17;11.60;;;2.60;99.90;;;;;;5009885;28;20183;-80
2021/11/10 02:29:48;;;;;;;13.47;10.97;;;2.50;99.90;;;;;;5017030;28;20229;-80
2021/11/10 02:32:14;;;;;;;14.93;10.90;;;2.50;99.90;;;;;;5017071;28;20182;-82
2021/11/10 02:34:42;;;;;;;14.23;10.77;;;2.50;99.90;;;;;;5017506;28;20266;-80
2021/11/10 02:37:09;;;;;;;12.90;10.50;;;2.60;99.90;;;;;;4999557;28;20669;-80
2021/11/10 02:39:36;;;;;;;17.20;10.67;;;2.60;99.90;;;;;;5016232;28;20233;-81
2021/11/10 02:42:04;;;;;;;16.97;11.47;;;2.50;99.90;;;;;;4998859;28;20168;-80
2021/11/10 02:44:29;;;;;;;16.97;11.30;;;2.60;99.90;;;;;;5016535;28;20185;-80
2021/11/10 02:46:55;;;;;;;15.53;10.30;;;2.50;99.90;;;;;;5016301;28;20271;-81
2021/11/10 02:49:21;;;;;;;16.60;12.13;;;2.50;99.90;;;;;;4999268;28;20231;-80
2021/11/10 02:51:54;;;;;;;18.07;11.10;;;2.50;99.90;;;;;;5016766;28;20313;-80
2021/11/10 02:54:20;;;;;;;16.03;11.50;;;2.40;99.90;;;;;;4998767;28;20199;-80
2021/11/10 02:56:45;;;;;;;16.30;11.40;;;2.40;99.90;;;;;;5011438;28;20713;-80
2021/11/10 02:59:11;;;;;;;15.50;11.00;;;2.40;99.90;;;;;;5016129;28;20195;-81
2021/11/10 03:01:37;;;;;;;19.37;11.63;;;2.40;99.90;;;;;;5012039;28;20650;-80
2021/11/10 03:04:03;;;;;;;16.57;12.40;;;2.50;99.90;;;;;;5012879;28;20183;-80
2021/11/10 03:06:28;;;;;;;16.13;11.57;;;2.40;99.90;;;;;;5014628;28;20229;-81
2021/11/10 03:08:54;;;;;;;15.40;11.43;;;2.50;99.90;;;;;;5014777;28;20200;-82
2021/11/10 03:11:20;;;;;;;19.33;12.10;;;2.50;99.90;;;;;;5016506;28;20208;-80
2021/11/10 03:13:45;;;;;;;18.67;11.70;;;2.50;99.90;;;;;;5002260;28;20202;-80
2021/11/10 03:16:11;;;;;;;14.43;11.40;;;2.60;99.90;;;;;;5001484;28;20186;-81
2021/11/10 03:18:37;;;;;;;15.87;11.97;;;2.50;99.90;;;;;;5019901;28;20203;-81
2021/11/10 03:21:03;;;;;;;15.60;11.93;;;2.60;99.90;;;;;;5019918;28;20179;-80
2021/11/10 03:23:29;;;;;;;16.07;12.10;;;2.60;99.90;;;;;;5002879;28;20186;-81
2021/11/10 03:25:55;;;;;;;17.27;11.33;;;2.60;99.90;;;;;;5020162;28;20184;-80
2021/11/10 03:28:21;;;;;;;14.57;11.20;;;2.40;99.90;;;;;;5017081;28;20271;-80
2021/11/10 03:30:46;;;;;;;14.03;11.23;;;2.20;99.90;;;;;;5002515;28;20650;-80
2021/11/10 03:33:12;;;;;;;15.43;11.47;;;2.00;99.90;;;;;;5002560;28;20194;-80
2021/11/10 03:35:38;;;;;;;17.87;12.07;;;1.90;99.90;;;;;;5001710;28;20198;-80
2021/11/10 03:38:03;;;;;;;16.97;11.77;;;1.80;99.90;;;;;;5019722;28;20546;-80
2021/11/10 03:40:29;;;;;;;18.13;12.13;;;1.80;99.90;;;;;;5019934;28;20264;-80
2021/11/10 03:42:55;;;;;;;17.73;11.37;;;1.60;99.90;;;;;;5020327;28;20193;-81
2021/11/10 03:45:21;;;;;;;16.17;11.10;;;1.80;99.90;;;;;;5002039;28;20194;-80
2021/11/10 03:47:46;;;;;;;17.00;11.80;;;1.90;99.90;;;;;;5001967;28;20271;-80
2021/11/10 03:50:12;;;;;;;15.70;12.30;;;1.90;99.90;;;;;;5002595;28;20208;-80
2021/11/10 03:52:38;;;;;;;15.87;11.03;;;2.00;99.90;;;;;;5002542;28;20171;-80
2021/11/10 03:55:04;;;;;;;15.03;10.93;;;2.00;99.90;;;;;;5002298;28;20179;-80
2021/11/10 03:57:29;;;;;;;13.80;10.97;;;2.10;99.90;;;;;;5019637;28;20171;-80
2021/11/10 03:59:55;;;;;;;16.27;11.50;;;2.20;99.90;;;;;;5002127;28;20629;-80
2021/11/10 04:02:21;;;;;;;17.20;12.10;;;2.20;99.90;;;;;;5019526;28;20179;-80
2021/11/10 04:04:46;;;;;;;16.57;11.30;;;2.20;99.90;;;;;;5020124;28;20646;-80
2021/11/10 04:07:12;;;;;;;16.53;11.40;;;2.20;99.90;;;;;;5019507;28;20312;-80
2021/11/10 04:09:39;;;;;;;15.00;11.53;;;2.20;99.90;;;;;;5019166;28;20551;-80
2021/11/10 04:12:05;;;;;;;17.40;12.17;;;2.20;99.90;;;;;;5001705;28;20669;-79
2021/11/10 04:14:31;;;;;;;15.37;11.13;;;2.20;99.90;;;;;;5001592;28;20194;-80
2021/11/10 04:16:57;;;;;;;15.00;10.77;;;2.30;99.90;;;;;;5019390;28;20191;-81
2021/11/10 04:19:22;;;;;;;14.27;11.30;;;2.30;99.90;;;;;;5019373;28;20282;-81
2021/11/10 04:21:48;;;;;;;15.50;11.63;;;2.10;99.90;;;;;;5001220;28;20298;-80
2021/11/10 04:24:13;;;;;;;14.53;11.63;;;2.10;99.90;;;;;;5001142;28;20187;-81
2021/11/10 04:26:40;;;;;;;14.80;11.30;;;2.10;99.90;;;;;;5001669;28;20186;-80
2021/11/10 04:29:06;;;;;;;14.83;11.17;;;2.10;99.90;;;;;;5019284;28;20205;-79
2021/11/10 04:31:32;;;;;;;14.63;11.57;;;2.10;99.90;;;;;;5019537;28;20552;-79
2021/11/10 04:33:58;;;;;;;14.80;12.30;;;2.10;99.90;;;;;;5001779;28;20206;-80
2021/11/10 04:36:28;;;;;;;16.53;11.97;;;2.00;99.90;;;;;;5000499;28;20176;-80
2021/11/10 04:38:54;;;;;;;17.67;11.90;;;2.10;99.90;;;;;;5017693;28;20295;-81
2021/11/10 04:41:20;;;;;;;16.33;11.77;;;2.10;99.90;;;;;;5015676;28;20183;-80
2021/11/10 04:43:46;;;;;;;14.83;11.10;;;2.10;99.90;;;;;;5019623;28;20263;-79
2021/11/10 04:48:38;;;;;;;18.57;11.30;;;2.10;99.90;;;;;;5018069;28;20202;-79
2021/11/10 04:51:09;;;;;;;18.27;12.10;;;2.00;99.90;;;;;;5016581;28;20186;-79
2021/11/10 04:53:37;;;;;;;18.97;11.80;;;2.00;99.90;;;;;;5016325;28;20192;-81
2021/11/10 04:56:04;;;;;;;16.57;11.47;;;1.90;99.90;;;;;;4999058;28;20187;-81
2021/11/10 04:58:30;;;;;;;15.13;10.87;;;1.80;99.90;;;;;;5010190;28;20199;-80
2021/11/10 05:00:56;;;;;;;15.97;12.27;;;1.90;99.90;;;;;;5012693;28;20184;-81
2021/11/10 05:03:23;;;;;;;16.07;11.83;;;1.90;99.90;;;;;;5017619;28;20190;-80
2021/11/10 05:05:49;;;;;;;17.87;12.77;;;1.90;99.90;;;;;;5000718;28;20229;-79
2021/11/10 05:08:15;;;;;;;17.07;11.90;;;1.90;99.90;;;;;;4999409;28;20210;-82
2021/11/10 05:10:41;;;;;;;16.70;12.40;;;1.90;99.90;;;;;;5015703;28;20189;-80
2021/11/10 05:13:07;;;;;;;16.23;12.27;;;2.00;99.90;;;;;;5016427;28;20201;-79
2021/11/10 05:15:33;;;;;;;15.40;11.93;;;2.00;99.90;;;;;;4997617;28;20204;-79
2021/11/10 05:17:59;;;;;;;16.77;12.50;;;2.00;99.90;;;;;;4998865;28;20175;-80
2021/11/10 05:20:25;;;;;;;18.33;12.37;;;2.00;99.90;;;;;;4999853;28;20190;-80
2021/11/10 05:22:51;;;;;;;18.07;12.10;;;2.00;99.90;;;;;;5000468;28;20176;-80
2021/11/10 05:25:17;;;;;;;15.60;12.07;;;2.00;99.90;;;;;;5018175;28;20206;-80
2021/11/10 05:27:43;;;;;;;18.00;12.53;;;1.90;99.90;;;;;;5018227;28;20668;-80
2021/11/10 05:30:10;;;;;;;15.53;12.37;;;1.80;99.90;;;;;;5017992;28;20213;-80
2021/11/10 05:32:36;;;;;;;17.57;13.10;;;1.70;99.90;;;;;;5000222;28;20178;-80
2021/11/10 05:35:02;;;;;;;16.87;12.27;;;1.80;99.90;;;;;;5014425;28;20206;-80
2021/11/10 05:37:29;;;;;;;14.17;12.20;;;1.80;99.90;;;;;;5017851;28;20186;-79
2021/11/10 05:39:55;;;;;;;17.47;12.60;;;1.90;99.90;;;;;;5017045;28;20218;-79
2021/11/10 05:42:21;;;;;;;19.30;12.37;;;1.90;99.90;;;;;;5017247;28;20177;-79
2021/11/10 05:44:47;;;;;;;15.60;12.43;;;1.90;99.90;;;;;;4998780;28;20233;-79
2021/11/10 05:47:13;;;;;;;18.27;13.00;;;2.00;99.90;;;;;;5033398;23;20235;-80
2021/11/10 05:49:39;;;;;;;18.17;12.87;;;2.00;99.90;;;;;;5020124;28;20171;-80
2021/11/10 05:52:06;;;;;;;23.60;13.80;;;2.00;99.90;;;;;;5018747;28;20624;-80
2021/11/10 05:54:32;;;;;;;20.03;13.27;;;2.00;99.90;;;;;;5007153;28;20694;-80
2021/11/10 05:56:58;;;;;;;16.70;13.07;;;2.00;99.90;;;;;;5019490;28;20191;-79
2021/11/10 05:59:23;;;;;;;21.60;13.70;;;2.10;99.90;;;;;;5002570;28;20708;-81
2021/11/10 06:01:49;;;;;;;17.73;13.47;;;2.10;99.90;;;;;;5019341;28;20171;-80
2021/11/10 06:04:15;;;;;;;18.13;12.60;;;2.20;99.90;;;;;;4999170;28;20243;-81
2021/11/10 06:06:41;;;;;;;16.47;12.07;;;2.10;99.90;;;;;;4999660;28;20271;-81
2021/11/10 06:09:06;;;;;;;19.70;12.83;;;2.10;99.90;;;;;;4999683;28;20677;-80
2021/11/10 06:11:32;;;;;;;20.23;14.63;;;2.10;99.90;;;;;;5018036;28;20257;-79
2021/11/10 06:13:58;;;;;;;19.47;13.10;;;2.30;99.90;;;;;;4999937;28;20199;-80
2021/11/10 06:16:24;;;;;;;23.20;12.93;;;2.10;99.90;;;;;;5016711;28;20208;-80
2021/11/10 06:18:50;;;;;;;15.90;12.60;;;2.10;99.90;;;;;;5017278;28;20724;-81
2021/11/10 06:21:15;;;;;;;20.10;13.47;;;2.10;99.90;;;;;;5000441;28;20204;-80
2021/11/10 06:23:41;;;;;;;17.23;12.97;;;2.10;99.90;;;;;;4999453;28;20234;-80
2021/11/10 06:26:07;;;;;;;23.70;13.20;;;2.10;99.90;;;;;;5018409;28;20291;-80
2021/11/10 06:28:33;;;;;;;17.40;12.57;;;2.20;99.90;;;;;;5017278;28;20203;-79
2021/11/10 06:30:59;;;;;;;16.93;13.23;;;2.20;99.90;;;;;;5019015;28;20180;-80
2021/11/10 06:33:25;;;;;;;20.50;13.63;;;2.20;99.90;;;;;;5001471;28;20202;-80
2021/11/10 06:35:50;;;;;;;23.70;16.27;;;2.10;99.90;;;;;;5000592;28;20692;-81
2021/11/10 06:38:17;;;;;;;19.20;13.17;;;2.00;99.90;;;;;;5002224;28;20258;-81
2021/11/10 06:40:42;;;;;;;23.27;15.07;;;2.10;99.90;;;;;;5001464;28;20274;-80
2021/11/10 06:43:08;;;;;;;31.97;19.00;;;2.00;99.90;;;;;;5018738;28;20646;-80
2021/11/10 06:45:34;;;;;;;22.93;14.00;;;1.90;99.90;;;;;;4999670;28;20186;-81
2021/11/10 06:47:59;;;;;;;18.67;14.07;;;1.90;99.90;;;;;;5001679;28;20678;-81
2021/11/10 06:50:25;;;;;;;19.33;14.00;;;2.00;99.90;;;;;;5016245;28;20191;-81
2021/11/10 06:52:51;;;;;;;20.20;13.97;;;2.00;99.90;;;;;;5016624;28;20173;-81
2021/11/10 06:55:16;;;;;;;27.03;15.70;;;2.00;99.90;;;;;;5016823;28;20241;-81
2021/11/10 06:57:42;;;;;;;24.53;16.47;;;2.00;99.90;;;;;;5017267;28;20214;-82
2021/11/10 07:00:11;;;;;;;25.03;14.57;;;1.90;99.90;;;;;;5016078;28;20207;-81
2021/11/10 07:02:38;;;;;;;20.73;13.83;;;1.80;99.90;;;;;;5016143;28;20645;-80
2021/11/10 07:05:04;;;;;;;22.13;14.57;;;1.90;99.90;;;;;;5018252;28;20171;-81
2021/11/10 07:07:30;;;;;;;19.63;14.07;;;1.90;99.90;;;;;;4999509;28;20196;-81
2021/11/10 07:09:55;;;;;;;23.30;14.97;;;2.00;99.90;;;;;;5017855;28;20195;-79
2021/11/10 07:12:21;;;;;;;22.60;15.30;;;2.10;99.90;;;;;;5013380;28;20183;-79
2021/11/10 07:14:47;;;;;;;26.63;15.80;;;2.10;99.90;;;;;;5000194;28;20205;-81
2021/11/10 07:17:12;;;;;;;26.57;16.23;;;2.00;99.90;;;;;;4998732;28;20976;-81
2021/11/10 07:19:38;;;;;;;21.97;15.40;;;2.00;99.90;;;;;;5015898;28;20227;-81
2021/11/10 07:22:04;;;;;;;20.93;14.87;;;2.00;99.90;;;;;;4997540;28;20645;-80
2021/11/10 07:24:30;;;;;;;23.97;15.67;;;2.10;99.90;;;;;;5003211;28;20327;-79
2021/11/10 07:26:56;;;;;;;23.60;16.13;;;2.10;99.90;;;;;;4994364;28;20223;-80
2021/11/10 07:29:22;;;;;;;27.03;16.97;;;2.20;99.90;;;;;;4976486;28;20263;-80
2021/11/10 07:31:48;;;;;;;24.70;16.33;;;2.10;99.90;;;;;;4989709;28;20254;-80
2021/11/10 07:34:14;;;;;;;23.33;15.93;;;2.10;99.90;;;;;;4995960;28;20214;-80
2021/11/10 07:36:40;;;;;;;21.77;15.13;;;2.10;99.90;;;;;;4981135;28;20199;-80
2021/11/10 07:39:06;;;;;;;27.17;15.77;;;2.10;99.90;;;;;;5000923;28;20183;-79
2021/11/10 07:41:33;;;;;;;25.87;15.50;;;2.30;99.90;;;;;;5014780;28;20235;-80
2021/11/10 07:43:59;;;;;;;29.37;15.37;;;2.30;99.90;;;;;;4997108;28;20187;-80
2021/11/10 07:46:31;;;;;;;24.93;14.97;;;2.40;99.90;;;;;;4992262;28;20220;-80
2021/11/10 07:48:58;;;;;;;31.67;16.60;;;2.40;99.90;;;;;;5001383;28;20242;-80
2021/11/10 07:51:24;;;;;;;24.17;16.47;;;2.50;99.90;;;;;;4993437;28;20196;-80
2021/11/10 07:53:50;;;;;;;23.17;15.87;;;2.60;99.90;;;;;;5014052;28;20207;-80
2021/11/10 07:56:16;;;;;;;26.80;15.57;;;2.50;99.90;;;;;;5013898;28;20223;-81
2021/11/10 07:58:42;;;;;;;22.60;15.53;;;2.60;99.90;;;;;;5007651;28;20194;-80
2021/11/10 08:01:09;;;;;;;24.97;15.57;;;2.60;99.90;;;;;;5006440;28;20664;-80
2021/11/10 08:03:35;;;;;;;24.50;14.93;;;2.60;99.90;;;;;;5005960;28;20235;-80
2021/11/10 08:06:01;;;;;;;26.17;15.30;;;2.60;99.90;;;;;;5018237;28;20203;-82
2021/11/10 08:08:28;;;;;;;22.90;14.77;;;2.60;99.90;;;;;;5012049;28;20184;-81
2021/11/10 08:11:04;;;;;;;24.90;15.93;;;2.70;99.90;;;;;;4999838;28;20653;-81
2021/11/10 08:13:30;;;;;;;24.90;16.83;;;2.70;99.90;;;;;;5004685;28;20196;-81
2021/11/10 08:15:57;;;;;;;30.93;20.47;;;2.70;99.90;;;;;;5022795;28;20231;-81
2021/11/10 08:18:23;;;;;;;30.57;19.80;;;2.70;99.90;;;;;;5020747;28;20632;-81
2021/11/10 08:20:49;;;;;;;37.90;24.63;;;2.70;99.90;;;;;;5022587;28;20186;-79
2021/11/10 08:23:19;;;;;;;46.87;26.57;;;2.90;99.90;;;;;;5003952;28;20187;-81
2021/11/10 08:25:46;;;;;;;39.50;24.33;;;2.80;99.90;;;;;;5020321;28;20203;-81
2021/11/10 08:28:11;;;;;;;33.37;21.90;;;2.90;99.90;;;;;;5022019;28;20203;-80
2021/11/10 08:30:37;;;;;;;35.30;22.90;;;3.00;99.90;;;;;;5021068;28;20177;-80
2021/11/10 08:33:03;;;;;;;34.53;21.47;;;3.00;99.90;;;;;;5020789;28;20206;-81
2021/11/10 08:35:29;;;;;;;30.57;20.13;;;3.00;99.90;;;;;;5019609;28;20237;-81
2021/11/10 08:37:56;;;;;;;31.73;20.30;;;3.10;99.90;;;;;;5020287;28;20203;-81
2021/11/10 08:40:22;;;;;;;33.63;20.10;;;3.20;99.90;;;;;;5000798;28;20180;-81
2021/11/10 08:42:48;;;;;;;29.37;18.97;;;3.30;99.90;;;;;;5021768;28;20752;-81
2021/11/10 08:45:18;;;;;;;32.60;20.27;;;3.40;99.90;;;;;;5021199;28;20209;-81
2021/11/10 08:47:46;;;;;;;32.67;20.63;;;3.50;99.90;;;;;;5020309;28;20213;-80
2021/11/10 08:50:15;;;;;;;34.07;20.87;;;3.50;99.90;;;;;;5021598;28;20213;-81
2021/11/10 08:52:42;;;;;;;32.90;19.53;;;3.70;99.90;;;;;;5004952;28;20221;-81
2021/11/10 08:55:09;;;;;;;35.27;21.30;;;3.80;99.90;;;;;;5020499;28;20225;-81
2021/11/10 08:57:39;;;;;;;28.03;19.50;;;3.80;99.90;;;;;;5020764;28;20211;-81
2021/11/10 09:00:08;;;;;;;31.37;20.20;;;3.80;99.90;;;;;;5019446;28;20267;-80
2021/11/10 09:02:35;;;;;;;31.67;19.63;;;4.00;99.90;;;;;;5023481;28;20231;-82
2021/11/10 09:05:02;;;;;;;28.37;19.00;;;4.10;99.90;;;;;;5008070;28;20188;-81
2021/11/10 09:07:28;;;;;;;34.17;21.47;;;4.00;99.90;;;;;;5024938;28;20194;-79
2021/11/10 09:09:54;;;;;;;35.47;21.53;;;4.10;99.90;;;;;;5023048;28;20553;-82
2021/11/10 09:12:20;;;;;;;35.23;21.33;;;4.10;99.90;;;;;;5024150;28;20216;-81
2021/11/10 09:14:45;;;;;;;34.13;21.70;;;4.20;99.90;;;;;;5006952;28;20209;-81
2021/11/10 09:17:12;;;;;;;33.53;20.77;;;4.20;99.90;;;;;;5027803;28;20193;-81
2021/11/10 09:19:39;;;;;;;33.27;20.27;;;4.20;99.90;;;;;;5027101;28;20183;-82
2021/11/10 09:22:08;;;;;;;34.67;21.40;;;4.30;99.90;;;;;;5025589;28;20174;-83
2021/11/10 09:24:38;;;;;;;29.30;20.00;;;4.40;99.90;;;;;;5025938;28;20187;-82
2021/11/10 09:27:03;;;;;;;37.63;22.13;;;4.50;99.90;;;;;;5024441;28;20257;-81
2021/11/10 09:29:33;;;;;;;32.07;21.40;;;4.60;99.90;;;;;;5024230;28;20763;-82
2021/11/10 09:31:59;;;;;;;34.63;21.40;;;5.10;99.90;;;;;;5021679;28;20177;-80
2021/11/10 09:34:26;;;;;;;29.53;20.83;;;4.90;99.90;;;;;;5018844;28;20213;-82
2021/11/10 09:36:52;;;;;;;36.07;21.77;;;4.90;99.90;;;;;;5004559;28;20198;-80
2021/11/10 09:39:22;;;;;;;33.87;21.60;;;4.90;99.90;;;;;;5020554;28;20175;-82
2021/11/10 09:41:50;;;;;;;30.93;20.03;;;5.00;99.90;;;;;;5026229;28;20181;-81
2021/11/10 09:44:16;;;;;;;29.93;19.47;;;5.10;99.90;;;;;;5026893;28;20286;-82
2021/11/10 09:46:43;;;;;;;27.60;19.33;;;5.20;99.90;;;;;;5023398;28;20224;-82
2021/11/10 09:49:12;;;;;;;35.53;20.83;;;5.20;99.90;;;;;;5023480;28;20190;-82
2021/11/10 09:51:39;;;;;;;36.93;21.57;;;5.30;99.90;;;;;;5022301;28;20175;-82
2021/11/10 09:54:05;;;;;;;33.30;20.97;;;5.30;99.90;;;;;;5021620;28;20206;-82
2021/11/10 09:56:33;;;;;;;31.03;20.50;;;5.40;99.90;;;;;;5019702;28;20197;-81
2021/11/10 09:59:00;;;;;;;32.67;20.40;;;5.40;99.90;;;;;;5021037;28;20258;-81
2021/11/10 10:01:27;;;;;;;32.00;20.70;;;5.50;99.90;;;;;;5022296;28;20653;-82
2021/11/10 10:03:56;;;;;;;31.10;19.70;;;5.60;99.90;;;;;;5004513;28;20276;-81
2021/11/10 10:06:22;;;;;;;35.00;21.00;;;5.70;99.90;;;;;;5003039;28;20209;-81
2021/11/10 10:08:48;;;;;;;42.13;20.67;;;5.80;99.90;;;;;;5020478;28;20286;-81
2021/11/10 10:11:14;;;;;;;30.73;19.63;;;5.80;99.90;;;;;;5019812;28;20329;-81
2021/11/10 10:13:41;;;;;;;30.70;20.23;;;5.90;99.90;;;;;;5019480;28;20206;-82
2021/11/10 10:16:08;;;;;;;32.03;20.67;;;5.90;99.90;;;;;;5017101;28;20280;-81
2021/11/10 10:18:35;;;;;;;35.30;20.13;;;6.20;99.90;;;;;;5019613;28;20186;-81
2021/11/10 10:21:11;;;;;;;31.47;19.30;;;6.30;99.90;;;;;;5019631;28;20632;-82
2021/11/10 10:23:39;;;;;;;32.30;19.60;;;6.40;99.90;;;;;;5001443;28;20189;-82
2021/11/10 10:26:25;;;;;;;32.17;21.27;;;6.50;99.90;;;;;;5002556;28;20697;-81
2021/11/10 10:28:56;;;;;;;34.83;21.30;;;6.70;99.90;;;;;;5020097;28;20249;-82
2021/11/10 10:31:27;;;;;;;30.47;20.07;;;6.80;99.90;;;;;;5018172;28;20218;-82
2021/11/10 10:34:02;;;;;;;54.90;25.90;;;6.80;99.90;;;;;;5019062;28;20237;-82
2021/11/10 10:36:35;;;;;;;30.20;20.23;;;6.90;99.90;;;;;;5001225;28;20210;-82
2021/11/10 10:39:14;;;;;;;32.50;20.47;;;7.00;99.90;;;;;;5018636;28;20182;-82
2021/11/10 10:41:46;;;;;;;31.87;20.27;;;7.20;99.90;;;;;;5019703;28;20185;-82
2021/11/10 10:44:14;;;;;;;28.50;19.30;;;7.40;99.90;;;;;;5001145;28;20183;-82
2021/11/10 10:46:42;;;;;;;31.37;20.50;;;7.50;99.90;;;;;;5018611;28;20219;-82
2021/11/10 10:49:24;;;;;;;45.13;24.43;;;7.50;99.90;;;;;;5018239;28;20186;-81
2021/11/10 10:52:14;;;;;;;37.03;21.47;;;7.60;99.90;;;;;;5020798;28;20240;-82
2021/11/10 10:54:41;;;;;;;46.80;22.73;;;7.60;99.90;;;;;;5010582;28;20211;-81
2021/11/10 10:57:09;;;;;;;33.17;20.53;;;7.80;99.90;;;;;;5012603;28;20200;-81
2021/11/10 10:59:35;;;;;;;30.03;20.97;;;7.90;99.90;;;;;;5002474;28;20180;-81
2021/11/10 11:02:03;;;;;;;30.33;20.03;;;8.00;99.90;;;;;;5019352;28;20185;-81
2021/11/10 11:04:31;;;;;;;26.37;18.87;;;8.00;99.90;;;;;;5019774;28;20183;-81
2021/11/10 11:07:03;;;;;;;29.80;19.40;;;8.20;99.90;;;;;;5001328;28;20238;-81
2021/11/10 11:09:43;;;;;;;30.50;19.77;;;8.30;99.90;;;;;;5018037;28;20210;-81
2021/11/10 11:12:15;;;;;;;27.00;18.53;;;8.50;99.90;;;;;;5001638;28;20187;-81
2021/11/10 11:14:49;;;;;;;35.00;21.03;;;8.60;99.90;;;;;;5018127;28;20191;-81
2021/11/10 11:17:18;;;;;;;35.10;22.23;;;8.70;99.90;;;;;;5013845;28;20213;-81
2021/11/10 11:19:57;;;;;;;33.93;21.67;;;8.70;99.90;;;;;;4997952;28;20178;-82
2021/11/10 11:22:53;;;;;;;33.53;21.47;;;8.80;99.90;;;;;;5013004;28;20180;-82
2021/11/10 11:25:23;;;;;;;38.40;23.53;;;8.90;99.90;;;;;;5006827;28;20274;-82
2021/11/10 11:28:02;;;;;;;38.37;23.87;;;9.00;99.90;;;;;;5017685;28;20193;-82
2021/11/10 11:30:39;;;;;;;32.50;22.10;;;8.90;99.90;;;;;;5018427;28;20182;-81
2021/11/10 11:33:16;;;;;;;35.90;23.30;;;9.00;99.90;;;;;;5020764;28;20167;-81
2021/11/10 11:35:53;;;;;;;29.03;20.57;;;9.00;99.90;;;;;;5023106;28;20175;-82
2021/11/10 11:38:22;;;;;;;28.77;19.90;;;9.20;99.90;;;;;;5024293;28;20172;-82
2021/11/10 11:40:51;;;;;;;32.60;20.97;;;9.20;99.90;;;;;;5005672;28;20176;-82
2021/11/10 11:43:19;;;;;;;27.33;20.40;;;9.20;99.90;;;;;;5016868;28;20237;-82
2021/11/10 11:45:48;;;;;;;31.63;20.83;;;9.20;99.90;;;;;;5014254;28;20187;-81
2021/11/10 11:48:15;;;;;;;37.73;22.13;;;9.20;99.90;;;;;;5009189;28;20179;-83
2021/11/10 11:50:42;;;;;;;32.03;20.97;;;9.00;99.90;;;;;;5010426;28;20236;-81
2021/11/10 11:53:09;;;;;;;29.63;21.07;;;9.00;99.90;;;;;;5019323;28;20183;-82
2021/11/10 11:55:40;;;;;;;27.40;20.00;;;9.10;99.90;;;;;;4996064;28;20179;-82
2021/11/10 11:58:17;;;;;;;30.53;19.63;;;9.30;99.90;;;;;;5016921;28;20183;-81
2021/11/10 12:01:06;;;;;;;28.07;19.13;;;9.30;99.90;;;;;;5016372;28;20183;-81
2021/11/10 12:03:37;;;;;;;34.80;22.50;;;9.40;99.90;;;;;;5053140;22;20283;-80
2021/11/10 12:06:03;;;;;;;32.37;22.07;;;9.50;99.90;;;;;;5017130;28;20183;-80
2021/11/10 12:08:44;;;;;;;32.33;21.67;;;9.40;99.90;;;;;;5018633;28;20187;-79
2021/11/10 12:11:16;;;;;;;38.40;23.50;;;9.50;99.90;;;;;;4995631;28;20184;-79
2021/11/10 12:14:04;;;;;;;31.87;22.10;;;9.40;99.90;;;;;;5013069;28;20299;-81
2021/11/10 12:16:45;;;;;;;32.33;22.23;;;9.40;99.90;;;;;;4994669;28;20192;-79
2021/11/10 12:19:19;;;;;;;35.03;23.27;;;9.40;99.90;;;;;;5014953;28;20717;-80
2021/11/10 12:21:47;;;;;;;35.97;22.20;;;9.40;99.90;;;;;;5000552;28;20190;-81
2021/11/10 12:24:19;;;;;;;31.17;22.27;;;9.30;99.90;;;;;;5002088;28;20622;-78
2021/11/10 12:27:05;;;;;;;31.20;20.07;;;9.50;99.90;;;;;;4998397;28;20244;-81
2021/11/10 12:29:42;;;;;;;36.27;22.43;;;9.50;99.90;;;;;;5004434;28;20187;-79
2021/11/10 12:32:08;;;;;;;33.50;22.37;;;9.50;99.90;;;;;;5000308;28;20226;-80
2021/11/10 12:34:36;;;;;;;39.70;23.83;;;9.40;99.90;;;;;;5020140;28;20211;-79
2021/11/10 12:37:08;;;;;;;35.50;23.33;;;9.40;99.90;;;;;;5018346;28;20178;-78
2021/11/10 12:39:41;;;;;;;34.37;21.97;;;9.50;99.90;;;;;;5020066;28;20186;-80
2021/11/10 12:42:12;;;;;;;41.70;23.37;;;9.50;99.90;;;;;;5010858;28;20181;-80